Impacts TAF Board INFO
FOR SITUATIONAL AWARENESS. NOT TO BE USED FOR FLIGHT PLANNING PURPOSES.
IDs:

KSTL - St Louis/Lambert Int, MO, US

Issued at 1308 UTC 23 Jun 2018
Updated at 1346 UTC 23 Jun 2018
Potential Impact None Slight Moderate High
Time1251Z 23/14Z 23/15Z 23/16Z 23/17Z 23/18Z 23/19Z 23/20Z 23/21Z 23/22Z 23/23Z 24/00Z 24/01Z 24/02Z>>
Type OBS PRVL
  [TEMP]  
PRVL PRVL PRVL PRVL PRVL PRVL PRVL PRVL PRVL PRVL PRVL PRVL
VIS 10 >6 >6 >6 >6 >6 >6 >6 >6 >6 >6 >6 >6 >6
CIG 14 40
  [15]  
140 140 40 40 40 40 40 40 40 40 40 40
Cover OVC BKN
  [BKN]  
OVC OVC BKN BKN BKN BKN BKN BKN BKN BKN BKN BKN
FltCat MVFR VFR
  [MVFR]  
VFR VFR VFR VFR VFR VFR VFR VFR VFR VFR VFR VFR
WX -- --
  [--]  
-- -- -- -- -- -- -- -- -- -- -- --
WDir 310 VRB
[VRB]
300 300 270 270 270 270 270 270 270 270 270 270
WSpd 4 4
  [4]  
5 5 5 5 5 5 5 5 5 5 5 5
WGst -- --
  [--]  
-- -- -- -- -- -- -- -- -- -- -- --

Raw TAF
KSTL 231308Z 2313/2418 VRB04KT P6SM SCT015 BKN040
  TEMPO 2313/2315 BKN015
  FM231500 30005KT P6SM OVC140
  FM231700 27005KT P6SM BKN040
  FM240700 VRB04KT P6SM SCT250
  FM241700 VRB03KT P6SM SCT040


Raw METAR
KSTL 231251Z 31004KT 10SM BKN014 OVC043 21/18 A2981 RMK AO2 SLP087 T02110183
KSTL 231229Z 29003KT 10SM BKN014 OVC042 21/18 A2982 RMK AO2 T02110183
KSTL 231151Z 29003KT 10SM FEW015 BKN043 BKN250 21/18 A2981 RMK AO2 SLP085 70023 T02060183 10206 20200 53008
KSTL 231051Z 24005KT 10SM FEW015 BKN041 20/18 A2980 RMK AO2 SLP083 T02000183

METAR Board
Radar Display
Forecast Discussion

FOR SITUATIONAL AWARENESS. NOT TO BE USED FOR FLIGHT PLANNING PURPOSES.